sensor_id;sensor_type;location;lat;lon;timestamp;temperature;humidity
29353;DHT22;16344;50.364;8.944;2023-01-26T00:01:23;1.50;1.00
29353;DHT22;16344;50.364;8.944;2023-01-26T00:03:49;1.50;1.00
29353;DHT22;16344;50.364;8.944;2023-01-26T00:06:17;1.40;1.00
29353;DHT22;16344;50.364;8.944;2023-01-26T00:08:48;1.30;1.00
29353;DHT22;16344;50.364;8.944;2023-01-26T00:11:19;1.10;1.00
29353;DHT22;16344;50.364;8.944;2023-01-26T00:13:49;1.20;1.00
29353;DHT22;16344;50.364;8.944;2023-01-26T00:16:15;1.10;1.00
29353;DHT22;16344;50.364;8.944;2023-01-26T00:18:42;1.10;1.00
29353;DHT22;16344;50.364;8.944;2023-01-26T00:21:11;1.00;1.00
29353;DHT22;16344;50.364;8.944;2023-01-26T00:23:37;1.00;1.00
29353;DHT22;16344;50.364;8.944;2023-01-26T00:26:05;1.10;1.00
29353;DHT22;16344;50.364;8.944;2023-01-26T00:28:30;1.20;1.00
29353;DHT22;16344;50.364;8.944;2023-01-26T00:31:09;1.20;1.00
29353;DHT22;16344;50.364;8.944;2023-01-26T00:33:35;1.20;1.00
29353;DHT22;16344;50.364;8.944;2023-01-26T00:36:00;1.10;1.00
29353;DHT22;16344;50.364;8.944;2023-01-26T00:38:26;1.20;1.00
29353;DHT22;16344;50.364;8.944;2023-01-26T00:40:51;1.30;1.00
29353;DHT22;16344;50.364;8.944;2023-01-26T00:43:17;1.20;1.00
29353;DHT22;16344;50.364;8.944;2023-01-26T00:45:42;1.30;1.00
29353;DHT22;16344;50.364;8.944;2023-01-26T00:48:08;1.20;1.00
29353;DHT22;16344;50.364;8.944;2023-01-26T00:50:34;1.10;1.00
29353;DHT22;16344;50.364;8.944;2023-01-26T00:52:59;1.10;1.00
29353;DHT22;16344;50.364;8.944;2023-01-26T00:55:25;1.20;1.00
29353;DHT22;16344;50.364;8.944;2023-01-26T00:57:57;1.20;1.00
29353;DHT22;16344;50.364;8.944;2023-01-26T01:00:22;1.30;1.00
29353;DHT22;16344;50.364;8.944;2023-01-26T01:02:48;1.30;1.00
29353;DHT22;16344;50.364;8.944;2023-01-26T01:05:14;1.30;1.00
29353;DHT22;16344;50.364;8.944;2023-01-26T01:07:39;1.30;1.00
29353;DHT22;16344;50.364;8.944;2023-01-26T01:10:05;1.30;1.00
29353;DHT22;16344;50.364;8.944;2023-01-26T01:12:33;1.30;1.00
29353;DHT22;16344;50.364;8.944;2023-01-26T01:14:58;1.20;1.00
29353;DHT22;16344;50.364;8.944;2023-01-26T01:17:24;1.20;1.00
29353;DHT22;16344;50.364;8.944;2023-01-26T01:19:49;1.20;1.00
29353;DHT22;16344;50.364;8.944;2023-01-26T01:22:15;1.20;1.00
29353;DHT22;16344;50.364;8.944;2023-01-26T01:24:41;1.20;1.00
29353;DHT22;16344;50.364;8.944;2023-01-26T01:27:06;1.10;1.00
29353;DHT22;16344;50.364;8.944;2023-01-26T01:29:32;1.10;1.00
29353;DHT22;16344;50.364;8.944;2023-01-26T01:31:57;1.10;1.00
29353;DHT22;16344;50.364;8.944;2023-01-26T01:34:23;1.10;1.00
29353;DHT22;16344;50.364;8.944;2023-01-26T01:36:48;1.20;1.00
29353;DHT22;16344;50.364;8.944;2023-01-26T01:39:14;1.20;1.00
29353;DHT22;16344;50.364;8.944;2023-01-26T01:41:40;1.20;1.00
29353;DHT22;16344;50.364;8.944;2023-01-26T01:44:12;1.20;1.00
29353;DHT22;16344;50.364;8.944;2023-01-26T01:46:39;1.30;1.00
29353;DHT22;16344;50.364;8.944;2023-01-26T01:49:19;1.30;1.00
29353;DHT22;16344;50.364;8.944;2023-01-26T01:51:56;1.40;1.00
29353;DHT22;16344;50.364;8.944;2023-01-26T01:54:28;1.40;1.00
29353;DHT22;16344;50.364;8.944;2023-01-26T01:56:58;1.30;1.00
29353;DHT22;16344;50.364;8.944;2023-01-26T01:59:24;1.30;1.00
29353;DHT22;16344;50.364;8.944;2023-01-26T02:01:51;1.30;1.00
29353;DHT22;16344;50.364;8.944;2023-01-26T02:04:19;1.30;1.00
29353;DHT22;16344;50.364;8.944;2023-01-26T02:06:54;1.30;1.00
29353;DHT22;16344;50.364;8.944;2023-01-26T02:09:25;1.30;1.00
29353;DHT22;16344;50.364;8.944;2023-01-26T02:12:14;1.20;1.00
29353;DHT22;16344;50.364;8.944;2023-01-26T02:14:41;1.20;1.00
29353;DHT22;16344;50.364;8.944;2023-01-26T02:17:08;1.30;1.00
29353;DHT22;16344;50.364;8.944;2023-01-26T02:19:46;1.30;1.00
29353;DHT22;16344;50.364;8.944;2023-01-26T02:22:24;1.30;1.00
29353;DHT22;16344;50.364;8.944;2023-01-26T02:24:54;1.30;1.00
29353;DHT22;16344;50.364;8.944;2023-01-26T02:27:23;1.30;1.00
29353;DHT22;16344;50.364;8.944;2023-01-26T02:29:49;1.20;1.00
29353;DHT22;16344;50.364;8.944;2023-01-26T02:32:15;1.20;1.00
29353;DHT22;16344;50.364;8.944;2023-01-26T02:34:41;1.30;1.00
29353;DHT22;16344;50.364;8.944;2023-01-26T02:37:13;1.40;1.00
29353;DHT22;16344;50.364;8.944;2023-01-26T02:42:04;1.20;1.00
29353;DHT22;16344;50.364;8.944;2023-01-26T02:44:48;1.20;1.00
29353;DHT22;16344;50.364;8.944;2023-01-26T02:47:16;1.30;1.00
29353;DHT22;16344;50.364;8.944;2023-01-26T02:49:41;1.30;1.00
29353;DHT22;16344;50.364;8.944;2023-01-26T02:52:16;1.20;1.00
29353;DHT22;16344;50.364;8.944;2023-01-26T02:54:41;1.20;1.00
29353;DHT22;16344;50.364;8.944;2023-01-26T02:57:25;1.30;1.00
29353;DHT22;16344;50.364;8.944;2023-01-26T02:59:51;1.30;1.00
29353;DHT22;16344;50.364;8.944;2023-01-26T03:02:17;1.30;1.00
29353;DHT22;16344;50.364;8.944;2023-01-26T03:04:43;1.20;1.00
29353;DHT22;16344;50.364;8.944;2023-01-26T03:10:31;1.30;1.00
29353;DHT22;16344;50.364;8.944;2023-01-26T03:12:57;1.10;1.00
29353;DHT22;16344;50.364;8.944;2023-01-26T03:15:23;1.20;1.00
29353;DHT22;16344;50.364;8.944;2023-01-26T03:18:15;1.30;1.00
29353;DHT22;16344;50.364;8.944;2023-01-26T03:21:01;1.30;1.00
29353;DHT22;16344;50.364;8.944;2023-01-26T03:23:46;1.30;1.00
29353;DHT22;16344;50.364;8.944;2023-01-26T03:26:31;1.40;1.00
29353;DHT22;16344;50.364;8.944;2023-01-26T03:29:15;1.30;1.00
29353;DHT22;16344;50.364;8.944;2023-01-26T03:31:40;1.30;1.00
29353;DHT22;16344;50.364;8.944;2023-01-26T03:34:06;1.30;1.00
29353;DHT22;16344;50.364;8.944;2023-01-26T03:36:31;1.30;1.00
29353;DHT22;16344;50.364;8.944;2023-01-26T03:38:57;1.30;1.00
29353;DHT22;16344;50.364;8.944;2023-01-26T03:41:22;1.40;1.00
29353;DHT22;16344;50.364;8.944;2023-01-26T03:44:06;1.40;1.00
29353;DHT22;16344;50.364;8.944;2023-01-26T03:46:50;1.30;1.00
29353;DHT22;16344;50.364;8.944;2023-01-26T03:49:35;1.20;1.00
29353;DHT22;16344;50.364;8.944;2023-01-26T03:52:19;1.20;1.00
29353;DHT22;16344;50.364;8.944;2023-01-26T03:55:03;1.00;1.00
29353;DHT22;16344;50.364;8.944;2023-01-26T03:57:47;1.10;1.00
29353;DHT22;16344;50.364;8.944;2023-01-26T04:00:13;1.10;1.00
29353;DHT22;16344;50.364;8.944;2023-01-26T04:02:40;1.00;1.00
29353;DHT22;16344;50.364;8.944;2023-01-26T04:05:24;1.00;1.00
29353;DHT22;16344;50.364;8.944;2023-01-26T04:08:08;1.00;1.00
29353;DHT22;16344;50.364;8.944;2023-01-26T04:10:52;1.10;1.00
29353;DHT22;16344;50.364;8.944;2023-01-26T04:13:19;1.00;1.00
29353;DHT22;16344;50.364;8.944;2023-01-26T04:16:04;1.00;1.00
29353;DHT22;16344;50.364;8.944;2023-01-26T04:18:48;1.10;1.00
29353;DHT22;16344;50.364;8.944;2023-01-26T04:21:33;1.00;1.00
29353;DHT22;16344;50.364;8.944;2023-01-26T04:24:01;0.90;1.00
29353;DHT22;16344;50.364;8.944;2023-01-26T04:26:30;1.00;1.00
29353;DHT22;16344;50.364;8.944;2023-01-26T04:29:06;1.00;1.00
29353;DHT22;16344;50.364;8.944;2023-01-26T04:31:32;1.00;1.00
29353;DHT22;16344;50.364;8.944;2023-01-26T04:33:59;1.00;1.00
29353;DHT22;16344;50.364;8.944;2023-01-26T04:36:25;1.00;1.00
29353;DHT22;16344;50.364;8.944;2023-01-26T04:38:50;1.00;1.00
29353;DHT22;16344;50.364;8.944;2023-01-26T04:41:16;1.00;1.00
29353;DHT22;16344;50.364;8.944;2023-01-26T04:43:42;0.80;1.00
29353;DHT22;16344;50.364;8.944;2023-01-26T04:46:08;0.80;1.00
29353;DHT22;16344;50.364;8.944;2023-01-26T04:48:34;0.90;1.00
29353;DHT22;16344;50.364;8.944;2023-01-26T04:51:06;0.90;1.00
29353;DHT22;16344;50.364;8.944;2023-01-26T04:53:32;0.90;1.00
29353;DHT22;16344;50.364;8.944;2023-01-26T04:55:59;0.90;1.00
29353;DHT22;16344;50.364;8.944;2023-01-26T04:58:25;0.80;1.00
29353;DHT22;16344;50.364;8.944;2023-01-26T05:00:55;0.70;1.00
29353;DHT22;16344;50.364;8.944;2023-01-26T05:03:21;0.70;1.00
29353;DHT22;16344;50.364;8.944;2023-01-26T05:05:48;0.80;1.00
29353;DHT22;16344;50.364;8.944;2023-01-26T05:08:15;0.80;1.00
29353;DHT22;16344;50.364;8.944;2023-01-26T05:10:41;0.80;1.00
29353;DHT22;16344;50.364;8.944;2023-01-26T05:13:07;0.80;1.00
29353;DHT22;16344;50.364;8.944;2023-01-26T05:15:33;0.80;1.00
29353;DHT22;16344;50.364;8.944;2023-01-26T05:17:58;0.90;1.00
29353;DHT22;16344;50.364;8.944;2023-01-26T05:20:24;0.80;1.00
29353;DHT22;16344;50.364;8.944;2023-01-26T05:22:50;0.80;1.00
29353;DHT22;16344;50.364;8.944;2023-01-26T05:25:15;0.90;1.00
29353;DHT22;16344;50.364;8.944;2023-01-26T05:27:41;0.80;1.00
29353;DHT22;16344;50.364;8.944;2023-01-26T05:30:07;0.80;1.00
29353;DHT22;16344;50.364;8.944;2023-01-26T05:32:32;0.70;1.00
29353;DHT22;16344;50.364;8.944;2023-01-26T05:34:58;0.70;1.00
29353;DHT22;16344;50.364;8.944;2023-01-26T05:37:25;0.70;1.00
29353;DHT22;16344;50.364;8.944;2023-01-26T05:39:50;0.80;1.00
29353;DHT22;16344;50.364;8.944;2023-01-26T05:42:17;0.70;1.00
29353;DHT22;16344;50.364;8.944;2023-01-26T05:44:42;0.80;1.00
29353;DHT22;16344;50.364;8.944;2023-01-26T05:47:08;0.80;1.00
29353;DHT22;16344;50.364;8.944;2023-01-26T05:49:33;0.90;1.00
29353;DHT22;16344;50.364;8.944;2023-01-26T05:51:59;0.90;1.00
29353;DHT22;16344;50.364;8.944;2023-01-26T05:54:25;1.00;1.00
29353;DHT22;16344;50.364;8.944;2023-01-26T05:56:50;0.90;1.00
29353;DHT22;16344;50.364;8.944;2023-01-26T05:59:17;0.90;1.00
29353;DHT22;16344;50.364;8.944;2023-01-26T06:01:43;0.90;1.00
29353;DHT22;16344;50.364;8.944;2023-01-26T06:04:08;0.90;1.00
29353;DHT22;16344;50.364;8.944;2023-01-26T06:06:34;0.90;1.00
29353;DHT22;16344;50.364;8.944;2023-01-26T06:08:59;0.90;1.00
29353;DHT22;16344;50.364;8.944;2023-01-26T06:11:25;1.00;1.00
29353;DHT22;16344;50.364;8.944;2023-01-26T06:13:50;1.00;1.00
29353;DHT22;16344;50.364;8.944;2023-01-26T06:16:16;1.10;1.00
29353;DHT22;16344;50.364;8.944;2023-01-26T06:18:42;1.10;1.00
29353;DHT22;16344;50.364;8.944;2023-01-26T06:21:07;1.10;1.00
29353;DHT22;16344;50.364;8.944;2023-01-26T06:23:33;1.00;1.00
29353;DHT22;16344;50.364;8.944;2023-01-26T06:25:59;1.00;1.00
29353;DHT22;16344;50.364;8.944;2023-01-26T06:28:26;0.90;1.00
29353;DHT22;16344;50.364;8.944;2023-01-26T06:30:51;0.80;1.00
29353;DHT22;16344;50.364;8.944;2023-01-26T06:33:17;0.90;1.00
29353;DHT22;16344;50.364;8.944;2023-01-26T06:35:43;1.00;1.00
29353;DHT22;16344;50.364;8.944;2023-01-26T06:38:08;1.00;1.00
29353;DHT22;16344;50.364;8.944;2023-01-26T06:40:34;0.90;1.00
29353;DHT22;16344;50.364;8.944;2023-01-26T06:42:59;1.00;1.00
29353;DHT22;16344;50.364;8.944;2023-01-26T06:45:25;1.00;1.00
29353;DHT22;16344;50.364;8.944;2023-01-26T06:47:50;1.00;1.00
29353;DHT22;16344;50.364;8.944;2023-01-26T06:50:25;1.00;1.00
29353;DHT22;16344;50.364;8.944;2023-01-26T06:52:54;0.90;1.00
29353;DHT22;16344;50.364;8.944;2023-01-26T06:55:27;0.70;1.00
29353;DHT22;16344;50.364;8.944;2023-01-26T06:57:53;0.60;1.00
29353;DHT22;16344;50.364;8.944;2023-01-26T07:00:19;0.60;1.00
29353;DHT22;16344;50.364;8.944;2023-01-26T07:02:44;0.50;1.00
29353;DHT22;16344;50.364;8.944;2023-01-26T07:05:10;0.50;1.00
29353;DHT22;16344;50.364;8.944;2023-01-26T07:07:36;0.50;1.00
29353;DHT22;16344;50.364;8.944;2023-01-26T07:10:02;0.50;1.00
29353;DHT22;16344;50.364;8.944;2023-01-26T07:12:41;0.50;1.00
29353;DHT22;16344;50.364;8.944;2023-01-26T07:15:08;0.60;1.00
29353;DHT22;16344;50.364;8.944;2023-01-26T07:17:33;0.60;1.00
29353;DHT22;16344;50.364;8.944;2023-01-26T07:19:59;0.80;1.00
29353;DHT22;16344;50.364;8.944;2023-01-26T07:22:24;0.90;1.00
29353;DHT22;16344;50.364;8.944;2023-01-26T07:24:50;0.90;1.00
29353;DHT22;16344;50.364;8.944;2023-01-26T07:27:15;1.00;1.00
29353;DHT22;16344;50.364;8.944;2023-01-26T07:29:41;1.00;1.00
29353;DHT22;16344;50.364;8.944;2023-01-26T07:32:06;1.10;1.00
29353;DHT22;16344;50.364;8.944;2023-01-26T07:34:32;1.00;1.00
29353;DHT22;16344;50.364;8.944;2023-01-26T07:36:57;0.80;1.00
29353;DHT22;16344;50.364;8.944;2023-01-26T07:39:23;0.90;1.00
29353;DHT22;16344;50.364;8.944;2023-01-26T07:41:49;0.70;1.00
29353;DHT22;16344;50.364;8.944;2023-01-26T07:44:14;0.70;1.00
29353;DHT22;16344;50.364;8.944;2023-01-26T07:46:40;0.70;1.00
29353;DHT22;16344;50.364;8.944;2023-01-26T07:49:05;0.80;1.00
29353;DHT22;16344;50.364;8.944;2023-01-26T07:51:32;0.80;1.00
29353;DHT22;16344;50.364;8.944;2023-01-26T07:53:57;0.80;1.00
29353;DHT22;16344;50.364;8.944;2023-01-26T07:56:23;0.60;1.00
29353;DHT22;16344;50.364;8.944;2023-01-26T07:58:53;0.60;1.00
29353;DHT22;16344;50.364;8.944;2023-01-26T08:01:19;0.60;1.00
29353;DHT22;16344;50.364;8.944;2023-01-26T08:03:45;0.70;1.00
29353;DHT22;16344;50.364;8.944;2023-01-26T08:06:11;0.70;1.00
29353;DHT22;16344;50.364;8.944;2023-01-26T08:08:37;0.70;1.00
29353;DHT22;16344;50.364;8.944;2023-01-26T08:11:06;0.70;1.00
29353;DHT22;16344;50.364;8.944;2023-01-26T08:13:31;0.70;1.00
29353;DHT22;16344;50.364;8.944;2023-01-26T08:16:02;0.60;1.00
29353;DHT22;16344;50.364;8.944;2023-01-26T08:18:28;0.60;1.00
29353;DHT22;16344;50.364;8.944;2023-01-26T08:20:53;0.60;1.00
29353;DHT22;16344;50.364;8.944;2023-01-26T08:23:19;0.70;1.00
29353;DHT22;16344;50.364;8.944;2023-01-26T08:25:45;0.60;1.00
29353;DHT22;16344;50.364;8.944;2023-01-26T08:28:11;0.70;1.00
29353;DHT22;16344;50.364;8.944;2023-01-26T08:30:37;0.70;1.00
29353;DHT22;16344;50.364;8.944;2023-01-26T08:33:03;0.70;1.00
29353;DHT22;16344;50.364;8.944;2023-01-26T08:35:31;0.60;1.00
29353;DHT22;16344;50.364;8.944;2023-01-26T08:37:57;0.70;1.00
29353;DHT22;16344;50.364;8.944;2023-01-26T08:40:22;0.80;1.00
29353;DHT22;16344;50.364;8.944;2023-01-26T08:42:49;0.70;1.00
29353;DHT22;16344;50.364;8.944;2023-01-26T08:45:15;0.60;1.00
29353;DHT22;16344;50.364;8.944;2023-01-26T08:47:40;0.70;1.00
29353;DHT22;16344;50.364;8.944;2023-01-26T08:50:06;0.70;1.00
29353;DHT22;16344;50.364;8.944;2023-01-26T08:52:32;0.70;1.00
29353;DHT22;16344;50.364;8.944;2023-01-26T08:54:57;0.70;1.00
29353;DHT22;16344;50.364;8.944;2023-01-26T08:57:23;0.70;1.00
29353;DHT22;16344;50.364;8.944;2023-01-26T08:59:48;0.70;1.00
29353;DHT22;16344;50.364;8.944;2023-01-26T09:02:14;0.70;1.00
29353;DHT22;16344;50.364;8.944;2023-01-26T09:04:39;0.80;1.00
29353;DHT22;16344;50.364;8.944;2023-01-26T09:07:05;0.70;1.00
29353;DHT22;16344;50.364;8.944;2023-01-26T09:09:30;0.70;1.00
29353;DHT22;16344;50.364;8.944;2023-01-26T09:11:56;0.70;1.00
29353;DHT22;16344;50.364;8.944;2023-01-26T09:14:22;0.70;1.00
29353;DHT22;16344;50.364;8.944;2023-01-26T09:16:48;0.70;1.00
29353;DHT22;16344;50.364;8.944;2023-01-26T09:19:14;0.70;1.00
29353;DHT22;16344;50.364;8.944;2023-01-26T09:21:39;0.60;1.00
29353;DHT22;16344;50.364;8.944;2023-01-26T09:24:05;0.50;1.00
29353;DHT22;16344;50.364;8.944;2023-01-26T09:26:31;0.50;1.00
29353;DHT22;16344;50.364;8.944;2023-01-26T09:28:57;0.60;1.00
29353;DHT22;16344;50.364;8.944;2023-01-26T09:31:23;0.70;1.00
29353;DHT22;16344;50.364;8.944;2023-01-26T09:33:49;0.80;1.00
29353;DHT22;16344;50.364;8.944;2023-01-26T09:36:15;0.80;1.00
29353;DHT22;16344;50.364;8.944;2023-01-26T09:38:41;0.80;1.00
29353;DHT22;16344;50.364;8.944;2023-01-26T09:44:19;0.80;1.00
29353;DHT22;16344;50.364;8.944;2023-01-26T09:49:47;0.70;1.00
29353;DHT22;16344;50.364;8.944;2023-01-26T09:52:37;0.70;1.00
29353;DHT22;16344;50.364;8.944;2023-01-26T09:55:08;0.80;1.00
29353;DHT22;16344;50.364;8.944;2023-01-26T09:57:47;0.90;1.00
29353;DHT22;16344;50.364;8.944;2023-01-26T10:00:23;0.90;1.00
29353;DHT22;16344;50.364;8.944;2023-01-26T10:03:43;0.90;1.00
29353;DHT22;16344;50.364;8.944;2023-01-26T10:08:38;0.90;1.00
29353;DHT22;16344;50.364;8.944;2023-01-26T10:11:13;0.80;1.00
29353;DHT22;16344;50.364;8.944;2023-01-26T10:13:44;0.90;1.00
29353;DHT22;16344;50.364;8.944;2023-01-26T10:16:13;0.80;1.00
29353;DHT22;16344;50.364;8.944;2023-01-26T10:19:03;0.70;1.00
29353;DHT22;16344;50.364;8.944;2023-01-26T10:21:32;0.80;1.00
29353;DHT22;16344;50.364;8.944;2023-01-26T10:24:00;0.80;1.00
29353;DHT22;16344;50.364;8.944;2023-01-26T10:26:31;0.90;1.00
29353;DHT22;16344;50.364;8.944;2023-01-26T10:28:56;0.90;1.00
29353;DHT22;16344;50.364;8.944;2023-01-26T10:31:33;0.80;1.00
29353;DHT22;16344;50.364;8.944;2023-01-26T10:34:13;0.80;1.00
29353;DHT22;16344;50.364;8.944;2023-01-26T10:36:42;0.90;1.00
29353;DHT22;16344;50.364;8.944;2023-01-26T10:39:10;0.80;1.00
29353;DHT22;16344;50.364;8.944;2023-01-26T10:41:36;0.80;1.00
29353;DHT22;16344;50.364;8.944;2023-01-26T10:46:41;0.90;1.00
29353;DHT22;16344;50.364;8.944;2023-01-26T10:51:35;0.90;1.00
29353;DHT22;16344;50.364;8.944;2023-01-26T10:54:23;0.90;1.00
29353;DHT22;16344;50.364;8.944;2023-01-26T10:56:57;1.00;1.00
29353;DHT22;16344;50.364;8.944;2023-01-26T10:59:28;0.90;1.00
29353;DHT22;16344;50.364;8.944;2023-01-26T11:01:59;0.90;1.00
29353;DHT22;16344;50.364;8.944;2023-01-26T11:04:26;1.00;1.00
29353;DHT22;16344;50.364;8.944;2023-01-26T11:06:51;1.10;1.00
29353;DHT22;16344;50.364;8.944;2023-01-26T11:09:27;1.10;1.00
29353;DHT22;16344;50.364;8.944;2023-01-26T11:11:59;1.10;1.00
29353;DHT22;16344;50.364;8.944;2023-01-26T11:14:26;1.10;1.00
29353;DHT22;16344;50.364;8.944;2023-01-26T11:17:15;1.00;1.00
29353;DHT22;16344;50.364;8.944;2023-01-26T11:20:22;1.00;1.00
29353;DHT22;16344;50.364;8.944;2023-01-26T11:25:39;0.90;1.00
29353;DHT22;16344;50.364;8.944;2023-01-26T11:31:26;1.00;1.00
29353;DHT22;16344;50.364;8.944;2023-01-26T11:37:50;0.90;1.00
29353;DHT22;16344;50.364;8.944;2023-01-26T11:40:40;1.00;1.00
29353;DHT22;16344;50.364;8.944;2023-01-26T11:52:10;1.40;99.90
29353;DHT22;16344;50.364;8.944;2023-01-26T11:55:12;1.50;99.90
29353;DHT22;16344;50.364;8.944;2023-01-26T12:00:32;1.50;99.90
29353;DHT22;16344;50.364;8.944;2023-01-26T12:03:04;1.50;99.90
29353;DHT22;16344;50.364;8.944;2023-01-26T12:05:43;1.50;99.90
29353;DHT22;16344;50.364;8.944;2023-01-26T12:13:29;1.60;99.90
29353;DHT22;16344;50.364;8.944;2023-01-26T12:16:01;1.60;99.90
29353;DHT22;16344;50.364;8.944;2023-01-26T12:18:42;1.60;99.90
29353;DHT22;16344;50.364;8.944;2023-01-26T12:21:10;1.70;99.90
29353;DHT22;16344;50.364;8.944;2023-01-26T12:23:55;1.70;99.90
29353;DHT22;16344;50.364;8.944;2023-01-26T12:26:25;1.60;99.90
29353;DHT22;16344;50.364;8.944;2023-01-26T12:29:13;1.50;99.90
29353;DHT22;16344;50.364;8.944;2023-01-26T12:32:04;1.50;99.90
29353;DHT22;16344;50.364;8.944;2023-01-26T12:34:32;1.40;99.90
29353;DHT22;16344;50.364;8.944;2023-01-26T12:40:04;1.40;99.90
29353;DHT22;16344;50.364;8.944;2023-01-26T12:42:43;1.50;99.90
29353;DHT22;16344;50.364;8.944;2023-01-26T12:45:17;1.50;99.90
29353;DHT22;16344;50.364;8.944;2023-01-26T12:47:52;1.60;99.90
29353;DHT22;16344;50.364;8.944;2023-01-26T12:50:47;1.60;99.90
29353;DHT22;16344;50.364;8.944;2023-01-26T12:53:27;1.60;99.90
29353;DHT22;16344;50.364;8.944;2023-01-26T12:56:14;1.40;99.90
29353;DHT22;16344;50.364;8.944;2023-01-26T12:58:46;1.40;99.90
29353;DHT22;16344;50.364;8.944;2023-01-26T13:01:18;1.40;99.90
29353;DHT22;16344;50.364;8.944;2023-01-26T13:03:51;1.30;99.90
29353;DHT22;16344;50.364;8.944;2023-01-26T13:06:20;1.30;99.90
29353;DHT22;16344;50.364;8.944;2023-01-26T13:08:48;1.20;99.90
29353;DHT22;16344;50.364;8.944;2023-01-26T13:19:49;1.00;99.90
29353;DHT22;16344;50.364;8.944;2023-01-26T13:24:57;0.90;99.90
29353;DHT22;16344;50.364;8.944;2023-01-26T13:27:33;1.00;99.90
29353;DHT22;16344;50.364;8.944;2023-01-26T13:30:00;1.20;99.90
29353;DHT22;16344;50.364;8.944;2023-01-26T13:34:59;1.30;99.90
29353;DHT22;16344;50.364;8.944;2023-01-26T13:37:32;1.50;99.90
29353;DHT22;16344;50.364;8.944;2023-01-26T13:40:04;1.60;1.00
29353;DHT22;16344;50.364;8.944;2023-01-26T13:42:56;1.60;1.00
29353;DHT22;16344;50.364;8.944;2023-01-26T13:51:00;1.50;1.00
29353;DHT22;16344;50.364;8.944;2023-01-26T13:53:41;1.40;1.00
29353;DHT22;16344;50.364;8.944;2023-01-26T13:56:28;1.50;1.00
29353;DHT22;16344;50.364;8.944;2023-01-26T13:59:03;1.50;1.00
29353;DHT22;16344;50.364;8.944;2023-01-26T14:01:29;1.60;1.00
29353;DHT22;16344;50.364;8.944;2023-01-26T14:04:02;1.60;1.00
29353;DHT22;16344;50.364;8.944;2023-01-26T14:06:28;1.60;1.00
29353;DHT22;16344;50.364;8.944;2023-01-26T14:08:57;1.60;1.00
29353;DHT22;16344;50.364;8.944;2023-01-26T14:11:27;1.60;1.00
29353;DHT22;16344;50.364;8.944;2023-01-26T14:13:59;1.60;1.00
29353;DHT22;16344;50.364;8.944;2023-01-26T14:19:05;1.70;1.00
29353;DHT22;16344;50.364;8.944;2023-01-26T14:21:31;1.80;1.00
29353;DHT22;16344;50.364;8.944;2023-01-26T14:23:57;1.80;1.00
29353;DHT22;16344;50.364;8.944;2023-01-26T14:26:32;1.90;1.00
29353;DHT22;16344;50.364;8.944;2023-01-26T14:29:01;1.80;1.00
29353;DHT22;16344;50.364;8.944;2023-01-26T14:31:28;1.70;1.00
29353;DHT22;16344;50.364;8.944;2023-01-26T14:33:56;1.60;1.00
29353;DHT22;16344;50.364;8.944;2023-01-26T14:36:29;1.60;1.00
29353;DHT22;16344;50.364;8.944;2023-01-26T14:39:19;1.70;1.00
29353;DHT22;16344;50.364;8.944;2023-01-26T14:41:46;1.70;1.00
29353;DHT22;16344;50.364;8.944;2023-01-26T14:44:13;1.70;1.00
29353;DHT22;16344;50.364;8.944;2023-01-26T14:47:01;1.60;1.00
29353;DHT22;16344;50.364;8.944;2023-01-26T14:49:40;1.60;1.00
29353;DHT22;16344;50.364;8.944;2023-01-26T14:54:43;1.60;1.00
29353;DHT22;16344;50.364;8.944;2023-01-26T14:57:14;1.60;1.00
29353;DHT22;16344;50.364;8.944;2023-01-26T14:59:41;1.50;1.00
29353;DHT22;16344;50.364;8.944;2023-01-26T15:02:17;1.50;1.00
29353;DHT22;16344;50.364;8.944;2023-01-26T15:05:02;1.60;1.00
29353;DHT22;16344;50.364;8.944;2023-01-26T15:09:58;1.50;1.00
29353;DHT22;16344;50.364;8.944;2023-01-26T15:12:24;1.50;1.00
29353;DHT22;16344;50.364;8.944;2023-01-26T15:14:59;1.50;1.00
29353;DHT22;16344;50.364;8.944;2023-01-26T15:17:26;1.50;1.00
29353;DHT22;16344;50.364;8.944;2023-01-26T15:19:52;1.50;1.00
29353;DHT22;16344;50.364;8.944;2023-01-26T15:22:23;1.50;1.00
29353;DHT22;16344;50.364;8.944;2023-01-26T15:27:54;1.60;1.00
29353;DHT22;16344;50.364;8.944;2023-01-26T15:30:25;1.60;1.00
29353;DHT22;16344;50.364;8.944;2023-01-26T15:32:51;1.60;1.00
29353;DHT22;16344;50.364;8.944;2023-01-26T15:35:31;1.60;1.00
29353;DHT22;16344;50.364;8.944;2023-01-26T15:38:09;1.50;1.00
29353;DHT22;16344;50.364;8.944;2023-01-26T15:40:36;1.60;1.00
29353;DHT22;16344;50.364;8.944;2023-01-26T15:43:19;1.60;1.00
29353;DHT22;16344;50.364;8.944;2023-01-26T15:45:54;1.60;1.00
29353;DHT22;16344;50.364;8.944;2023-01-26T15:48:21;1.60;1.00
29353;DHT22;16344;50.364;8.944;2023-01-26T15:50:49;1.60;1.00
29353;DHT22;16344;50.364;8.944;2023-01-26T15:53:17;1.60;1.00
29353;DHT22;16344;50.364;8.944;2023-01-26T15:55:45;1.60;1.00
29353;DHT22;16344;50.364;8.944;2023-01-26T15:58:18;1.60;1.00
29353;DHT22;16344;50.364;8.944;2023-01-26T16:00:44;1.60;1.00
29353;DHT22;16344;50.364;8.944;2023-01-26T16:03:14;1.50;1.00
29353;DHT22;16344;50.364;8.944;2023-01-26T16:05:40;1.50;1.00
29353;DHT22;16344;50.364;8.944;2023-01-26T16:08:06;1.50;1.00
29353;DHT22;16344;50.364;8.944;2023-01-26T16:10:32;1.60;1.00
29353;DHT22;16344;50.364;8.944;2023-01-26T16:12:57;1.60;1.00
29353;DHT22;16344;50.364;8.944;2023-01-26T16:15:42;1.50;1.00
29353;DHT22;16344;50.364;8.944;2023-01-26T16:18:09;1.60;1.00
29353;DHT22;16344;50.364;8.944;2023-01-26T16:20:37;1.50;1.00
29353;DHT22;16344;50.364;8.944;2023-01-26T16:23:14;1.50;1.00
29353;DHT22;16344;50.364;8.944;2023-01-26T16:25:40;1.60;1.00
29353;DHT22;16344;50.364;8.944;2023-01-26T16:28:06;1.60;1.00
29353;DHT22;16344;50.364;8.944;2023-01-26T16:30:31;1.60;1.00
29353;DHT22;16344;50.364;8.944;2023-01-26T16:32:57;1.70;1.00
29353;DHT22;16344;50.364;8.944;2023-01-26T16:35:24;1.60;1.00
29353;DHT22;16344;50.364;8.944;2023-01-26T16:37:50;1.70;1.00
29353;DHT22;16344;50.364;8.944;2023-01-26T16:40:17;1.60;1.00
29353;DHT22;16344;50.364;8.944;2023-01-26T16:42:46;1.60;1.00
29353;DHT22;16344;50.364;8.944;2023-01-26T16:45:23;1.60;1.00
29353;DHT22;16344;50.364;8.944;2023-01-26T16:47:52;1.50;1.00
29353;DHT22;16344;50.364;8.944;2023-01-26T16:50:24;1.60;1.00
29353;DHT22;16344;50.364;8.944;2023-01-26T16:52:51;1.60;1.00
29353;DHT22;16344;50.364;8.944;2023-01-26T16:55:17;1.60;1.00
29353;DHT22;16344;50.364;8.944;2023-01-26T16:57:44;1.50;1.00
29353;DHT22;16344;50.364;8.944;2023-01-26T17:00:15;1.50;1.00
29353;DHT22;16344;50.364;8.944;2023-01-26T17:02:43;1.50;1.00
29353;DHT22;16344;50.364;8.944;2023-01-26T17:05:18;1.60;1.00
29353;DHT22;16344;50.364;8.944;2023-01-26T17:07:44;1.60;1.00
29353;DHT22;16344;50.364;8.944;2023-01-26T17:10:12;1.70;1.00
29353;DHT22;16344;50.364;8.944;2023-01-26T17:12:38;1.60;1.00
29353;DHT22;16344;50.364;8.944;2023-01-26T17:15:05;1.70;1.00
29353;DHT22;16344;50.364;8.944;2023-01-26T17:17:31;1.70;1.00
29353;DHT22;16344;50.364;8.944;2023-01-26T17:19:59;1.70;1.00
29353;DHT22;16344;50.364;8.944;2023-01-26T17:22:24;1.70;1.00
29353;DHT22;16344;50.364;8.944;2023-01-26T17:24:50;1.70;1.00
29353;DHT22;16344;50.364;8.944;2023-01-26T17:27:15;1.60;1.00
29353;DHT22;16344;50.364;8.944;2023-01-26T17:29:41;1.60;1.00
29353;DHT22;16344;50.364;8.944;2023-01-26T17:32:07;1.70;1.00
29353;DHT22;16344;50.364;8.944;2023-01-26T17:34:33;1.70;1.00
29353;DHT22;16344;50.364;8.944;2023-01-26T17:36:58;1.70;1.00